sensor_id;sensor_type;location;lat;lon;timestamp;pressure;altitude;pressure_sealevel;temperature;humidity
31538;BME280;18147;51.952;6.146;2023-08-07T00:00:05;101160.75;;;13.95;100.00
31538;BME280;18147;51.952;6.146;2023-08-07T00:02:34;101163.00;;;13.88;100.00
31538;BME280;18147;51.952;6.146;2023-08-07T00:05:00;101170.72;;;13.93;100.00
31538;BME280;18147;51.952;6.146;2023-08-07T00:07:25;101160.97;;;13.92;100.00
31538;BME280;18147;51.952;6.146;2023-08-07T00:09:51;101168.56;;;13.98;100.00
31538;BME280;18147;51.952;6.146;2023-08-07T00:12:16;101159.69;;;13.97;100.00
31538;BME280;18147;51.952;6.146;2023-08-07T00:14:42;101157.53;;;13.90;100.00
31538;BME280;18147;51.952;6.146;2023-08-07T00:17:08;101163.13;;;13.87;100.00
31538;BME280;18147;51.952;6.146;2023-08-07T00:19:34;101156.06;;;13.86;100.00
31538;BME280;18147;51.952;6.146;2023-08-07T00:21:59;101162.50;;;13.83;100.00
31538;BME280;18147;51.952;6.146;2023-08-07T00:24:25;101158.63;;;13.87;100.00
31538;BME280;18147;51.952;6.146;2023-08-07T00:26:50;101149.50;;;13.90;100.00
31538;BME280;18147;51.952;6.146;2023-08-07T00:29:16;101151.66;;;13.85;100.00
31538;BME280;18147;51.952;6.146;2023-08-07T00:31:42;101149.63;;;13.88;100.00
31538;BME280;18147;51.952;6.146;2023-08-07T00:34:07;101148.34;;;13.81;100.00
31538;BME280;18147;51.952;6.146;2023-08-07T00:36:34;101151.38;;;13.77;100.00
31538;BME280;18147;51.952;6.146;2023-08-07T00:39:01;101131.19;;;13.84;100.00
31538;BME280;18147;51.952;6.146;2023-08-07T00:41:29;101153.81;;;13.80;100.00
31538;BME280;18147;51.952;6.146;2023-08-07T00:43:55;101154.69;;;13.67;100.00
31538;BME280;18147;51.952;6.146;2023-08-07T00:46:21;101154.50;;;13.70;100.00
31538;BME280;18147;51.952;6.146;2023-08-07T00:48:47;101158.75;;;13.73;100.00
31538;BME280;18147;51.952;6.146;2023-08-07T00:51:13;101156.06;;;13.73;100.00
31538;BME280;18147;51.952;6.146;2023-08-07T00:53:39;101156.81;;;13.75;100.00
31538;BME280;18147;51.952;6.146;2023-08-07T00:56:05;101158.09;;;13.69;100.00
31538;BME280;18147;51.952;6.146;2023-08-07T00:58:32;101153.72;;;13.68;100.00
31538;BME280;18147;51.952;6.146;2023-08-07T01:00:58;101163.25;;;13.72;100.00
31538;BME280;18147;51.952;6.146;2023-08-07T01:03:24;101165.22;;;13.70;100.00
31538;BME280;18147;51.952;6.146;2023-08-07T01:05:50;101164.97;;;13.73;100.00
31538;BME280;18147;51.952;6.146;2023-08-07T01:08:16;101167.13;;;13.68;100.00
31538;BME280;18147;51.952;6.146;2023-08-07T01:16:58;101170.56;;;13.70;100.00
31538;BME280;18147;51.952;6.146;2023-08-07T01:19:27;101170.44;;;13.72;100.00
31538;BME280;18147;51.952;6.146;2023-08-07T01:22:09;101171.84;;;13.65;100.00
31538;BME280;18147;51.952;6.146;2023-08-07T01:24:39;101174.09;;;13.71;100.00
31538;BME280;18147;51.952;6.146;2023-08-07T01:29:59;101182.47;;;13.66;100.00
31538;BME280;18147;51.952;6.146;2023-08-07T01:35:01;101185.22;;;13.65;100.00
31538;BME280;18147;51.952;6.146;2023-08-07T01:37:29;101180.19;;;13.60;100.00
31538;BME280;18147;51.952;6.146;2023-08-07T01:39:59;101177.00;;;13.68;100.00
31538;BME280;18147;51.952;6.146;2023-08-07T01:42:26;101182.56;;;13.65;100.00
31538;BME280;18147;51.952;6.146;2023-08-07T01:44:52;101180.09;;;13.62;100.00
31538;BME280;18147;51.952;6.146;2023-08-07T01:47:18;101176.34;;;13.64;100.00
31538;BME280;18147;51.952;6.146;2023-08-07T01:49:44;101177.09;;;13.66;100.00
31538;BME280;18147;51.952;6.146;2023-08-07T01:52:09;101180.09;;;13.62;100.00
31538;BME280;18147;51.952;6.146;2023-08-07T01:54:36;101191.16;;;13.57;100.00
31538;BME280;18147;51.952;6.146;2023-08-07T01:57:02;101186.53;;;13.59;100.00
31538;BME280;18147;51.952;6.146;2023-08-07T01:59:27;101184.69;;;13.60;100.00
31538;BME280;18147;51.952;6.146;2023-08-07T02:01:53;101191.69;;;13.62;100.00
31538;BME280;18147;51.952;6.146;2023-08-07T02:04:18;101193.81;;;13.57;100.00
31538;BME280;18147;51.952;6.146;2023-08-07T02:06:44;101185.66;;;13.59;100.00
31538;BME280;18147;51.952;6.146;2023-08-07T02:09:11;101198.34;;;13.57;100.00
31538;BME280;18147;51.952;6.146;2023-08-07T02:11:37;101194.88;;;13.55;100.00
31538;BME280;18147;51.952;6.146;2023-08-07T02:14:02;101202.84;;;13.56;100.00
31538;BME280;18147;51.952;6.146;2023-08-07T02:16:28;101194.81;;;13.56;100.00
31538;BME280;18147;51.952;6.146;2023-08-07T02:18:53;101202.16;;;13.65;100.00
31538;BME280;18147;51.952;6.146;2023-08-07T02:21:19;101214.09;;;13.61;100.00
31538;BME280;18147;51.952;6.146;2023-08-07T02:23:45;101222.88;;;13.51;100.00
31538;BME280;18147;51.952;6.146;2023-08-07T02:26:10;101220.81;;;13.54;100.00
31538;BME280;18147;51.952;6.146;2023-08-07T02:28:36;101219.00;;;13.55;100.00
31538;BME280;18147;51.952;6.146;2023-08-07T02:31:01;101221.06;;;13.51;100.00
31538;BME280;18147;51.952;6.146;2023-08-07T02:33:27;101228.00;;;13.54;100.00
31538;BME280;18147;51.952;6.146;2023-08-07T02:35:56;101224.69;;;13.50;100.00
31538;BME280;18147;51.952;6.146;2023-08-07T02:38:21;101232.19;;;13.58;100.00
31538;BME280;18147;51.952;6.146;2023-08-07T02:40:47;101225.56;;;13.51;100.00
31538;BME280;18147;51.952;6.146;2023-08-07T02:43:12;101222.66;;;13.54;100.00
31538;BME280;18147;51.952;6.146;2023-08-07T02:45:38;101228.31;;;13.49;100.00
31538;BME280;18147;51.952;6.146;2023-08-07T02:48:04;101225.75;;;13.47;100.00
31538;BME280;18147;51.952;6.146;2023-08-07T02:50:29;101225.03;;;13.45;100.00
31538;BME280;18147;51.952;6.146;2023-08-07T02:52:58;101221.81;;;13.40;100.00
31538;BME280;18147;51.952;6.146;2023-08-07T02:55:24;101217.41;;;13.52;100.00
31538;BME280;18147;51.952;6.146;2023-08-07T02:57:49;101233.16;;;13.57;100.00
31538;BME280;18147;51.952;6.146;2023-08-07T03:00:15;101219.44;;;13.48;100.00
31538;BME280;18147;51.952;6.146;2023-08-07T03:02:41;101211.19;;;13.52;100.00
31538;BME280;18147;51.952;6.146;2023-08-07T03:05:07;101210.53;;;13.48;100.00
31538;BME280;18147;51.952;6.146;2023-08-07T03:07:32;101212.38;;;13.47;100.00
31538;BME280;18147;51.952;6.146;2023-08-07T03:09:58;101219.44;;;13.48;100.00
31538;BME280;18147;51.952;6.146;2023-08-07T03:12:23;101218.25;;;13.53;100.00
31538;BME280;18147;51.952;6.146;2023-08-07T03:14:49;101212.78;;;13.54;100.00
31538;BME280;18147;51.952;6.146;2023-08-07T03:17:14;101218.06;;;13.56;100.00
31538;BME280;18147;51.952;6.146;2023-08-07T03:19:42;101219.53;;;13.60;100.00
31538;BME280;18147;51.952;6.146;2023-08-07T03:22:08;101214.81;;;13.63;100.00
31538;BME280;18147;51.952;6.146;2023-08-07T03:24:33;101208.94;;;13.58;100.00
31538;BME280;18147;51.952;6.146;2023-08-07T03:26:59;101208.28;;;13.55;100.00
31538;BME280;18147;51.952;6.146;2023-08-07T03:29:25;101212.03;;;13.65;100.00
31538;BME280;18147;51.952;6.146;2023-08-07T03:31:51;101210.97;;;13.55;100.00
31538;BME280;18147;51.952;6.146;2023-08-07T03:34:17;101203.78;;;13.55;100.00
31538;BME280;18147;51.952;6.146;2023-08-07T03:36:43;101210.03;;;13.56;100.00
31538;BME280;18147;51.952;6.146;2023-08-07T03:39:08;101202.94;;;13.55;100.00
31538;BME280;18147;51.952;6.146;2023-08-07T03:41:35;101203.25;;;13.50;100.00
31538;BME280;18147;51.952;6.146;2023-08-07T03:44:01;101197.88;;;13.50;100.00
31538;BME280;18147;51.952;6.146;2023-08-07T03:46:27;101195.66;;;13.57;100.00
31538;BME280;18147;51.952;6.146;2023-08-07T03:48:53;101202.94;;;13.55;100.00
31538;BME280;18147;51.952;6.146;2023-08-07T03:51:19;101194.69;;;13.58;100.00
31538;BME280;18147;51.952;6.146;2023-08-07T03:53:49;101189.75;;;13.64;100.00
31538;BME280;18147;51.952;6.146;2023-08-07T03:56:14;101196.19;;;13.62;100.00
31538;BME280;18147;51.952;6.146;2023-08-07T03:58:40;101200.16;;;13.56;100.00
31538;BME280;18147;51.952;6.146;2023-08-07T04:01:06;101190.38;;;13.55;100.00
31538;BME280;18147;51.952;6.146;2023-08-07T04:03:31;101191.47;;;13.53;100.00
31538;BME280;18147;51.952;6.146;2023-08-07T04:05:58;101175.94;;;13.58;100.00
31538;BME280;18147;51.952;6.146;2023-08-07T04:08:26;101191.81;;;13.61;100.00
31538;BME280;18147;51.952;6.146;2023-08-07T04:11:02;101183.13;;;13.57;100.00
31538;BME280;18147;51.952;6.146;2023-08-07T04:13:29;101185.13;;;13.54;100.00
31538;BME280;18147;51.952;6.146;2023-08-07T04:15:55;101186.97;;;13.53;100.00
31538;BME280;18147;51.952;6.146;2023-08-07T04:18:21;101184.28;;;13.53;100.00
31538;BME280;18147;51.952;6.146;2023-08-07T04:20:55;101190.38;;;13.55;100.00
31538;BME280;18147;51.952;6.146;2023-08-07T04:23:21;101186.44;;;13.61;100.00
31538;BME280;18147;51.952;6.146;2023-08-07T04:25:48;101194.03;;;13.54;100.00
31538;BME280;18147;51.952;6.146;2023-08-07T04:28:13;101206.69;;;13.52;100.00
31538;BME280;18147;51.952;6.146;2023-08-07T04:30:40;101209.56;;;13.49;100.00
31538;BME280;18147;51.952;6.146;2023-08-07T04:33:06;101202.72;;;13.58;100.00
31538;BME280;18147;51.952;6.146;2023-08-07T04:35:32;101202.94;;;13.55;100.00
31538;BME280;18147;51.952;6.146;2023-08-07T04:37:58;101209.66;;;13.60;100.00
31538;BME280;18147;51.952;6.146;2023-08-07T04:40:23;101210.66;;;13.59;100.00
31538;BME280;18147;51.952;6.146;2023-08-07T04:42:49;101206.25;;;13.58;100.00
31538;BME280;18147;51.952;6.146;2023-08-07T04:45:15;101214.63;;;13.54;100.00
31538;BME280;18147;51.952;6.146;2023-08-07T04:47:40;101221.16;;;13.62;100.00
31538;BME280;18147;51.952;6.146;2023-08-07T04:50:07;101222.88;;;13.63;100.00
31538;BME280;18147;51.952;6.146;2023-08-07T04:52:34;101218.16;;;13.67;100.00
31538;BME280;18147;51.952;6.146;2023-08-07T04:54:59;101223.28;;;13.70;100.00
31538;BME280;18147;51.952;6.146;2023-08-07T04:57:25;101213.44;;;13.70;100.00
31538;BME280;18147;51.952;6.146;2023-08-07T04:59:52;101220.72;;;13.68;100.00
31538;BME280;18147;51.952;6.146;2023-08-07T05:02:17;101215.38;;;13.81;100.00
31538;BME280;18147;51.952;6.146;2023-08-07T05:04:43;101220.50;;;13.84;100.00
31538;BME280;18147;51.952;6.146;2023-08-07T05:07:08;101223.09;;;13.86;100.00
31538;BME280;18147;51.952;6.146;2023-08-07T05:09:35;101217.28;;;13.79;100.00
31538;BME280;18147;51.952;6.146;2023-08-07T05:12:02;101223.41;;;13.81;100.00
31538;BME280;18147;51.952;6.146;2023-08-07T05:14:29;101234.00;;;13.83;100.00
31538;BME280;18147;51.952;6.146;2023-08-07T05:16:55;101233.81;;;13.86;100.00
31538;BME280;18147;51.952;6.146;2023-08-07T05:19:20;101250.09;;;13.83;100.00
31538;BME280;18147;51.952;6.146;2023-08-07T05:21:46;101257.81;;;13.87;100.00
31538;BME280;18147;51.952;6.146;2023-08-07T05:24:15;101251.59;;;13.87;100.00
31538;BME280;18147;51.952;6.146;2023-08-07T05:26:41;101264.56;;;13.80;100.00
31538;BME280;18147;51.952;6.146;2023-08-07T05:29:07;101260.81;;;13.83;100.00
31538;BME280;18147;51.952;6.146;2023-08-07T05:31:33;101270.13;;;13.90;100.00
31538;BME280;18147;51.952;6.146;2023-08-07T05:33:59;101264.56;;;13.80;100.00
31538;BME280;18147;51.952;6.146;2023-08-07T05:36:25;101277.31;;;13.89;100.00
31538;BME280;18147;51.952;6.146;2023-08-07T05:38:50;101284.94;;;13.83;100.00
31538;BME280;18147;51.952;6.146;2023-08-07T05:41:16;101277.66;;;13.85;100.00
31538;BME280;18147;51.952;6.146;2023-08-07T05:43:42;101280.13;;;13.88;100.00
31538;BME280;18147;51.952;6.146;2023-08-07T05:46:08;101285.03;;;13.94;100.00
31538;BME280;18147;51.952;6.146;2023-08-07T05:48:34;101284.84;;;13.97;100.00
31538;BME280;18147;51.952;6.146;2023-08-07T05:51:00;101285.69;;;13.97;100.00
31538;BME280;18147;51.952;6.146;2023-08-07T05:53:26;101291.59;;;14.03;100.00
31538;BME280;18147;51.952;6.146;2023-08-07T05:55:52;101292.13;;;13.95;100.00
31538;BME280;18147;51.952;6.146;2023-08-07T05:58:17;101292.75;;;13.98;100.00
31538;BME280;18147;51.952;6.146;2023-08-07T06:00:44;101292.44;;;13.90;100.00
31538;BME280;18147;51.952;6.146;2023-08-07T06:03:10;101297.41;;;13.96;100.00
31538;BME280;18147;51.952;6.146;2023-08-07T06:05:35;101291.91;;;13.98;100.00
31538;BME280;18147;51.952;6.146;2023-08-07T06:08:01;101300.69;;;14.00;100.00
31538;BME280;18147;51.952;6.146;2023-08-07T06:10:27;101302.97;;;14.06;100.00
31538;BME280;18147;51.952;6.146;2023-08-07T06:12:53;101299.84;;;14.12;100.00
31538;BME280;18147;51.952;6.146;2023-08-07T06:15:18;101307.91;;;14.12;100.00
31538;BME280;18147;51.952;6.146;2023-08-07T06:17:44;101309.81;;;14.10;100.00
31538;BME280;18147;51.952;6.146;2023-08-07T06:20:10;101311.22;;;14.16;100.00
31538;BME280;18147;51.952;6.146;2023-08-07T06:22:37;101310.25;;;14.17;100.00
31538;BME280;18147;51.952;6.146;2023-08-07T06:25:03;101310.25;;;14.17;100.00
31538;BME280;18147;51.952;6.146;2023-08-07T06:27:31;101319.81;;;14.21;100.00
31538;BME280;18147;51.952;6.146;2023-08-07T06:29:57;101313.56;;;14.33;100.00
31538;BME280;18147;51.952;6.146;2023-08-07T06:32:24;101321.16;;;14.39;100.00
31538;BME280;18147;51.952;6.146;2023-08-07T06:34:50;101315.47;;;14.44;100.00
31538;BME280;18147;51.952;6.146;2023-08-07T06:37:15;101308.72;;;14.38;100.00
31538;BME280;18147;51.952;6.146;2023-08-07T06:39:41;101315.69;;;14.54;100.00
31538;BME280;18147;51.952;6.146;2023-08-07T06:42:06;101316.00;;;14.49;100.00
31538;BME280;18147;51.952;6.146;2023-08-07T06:44:34;101321.25;;;14.50;100.00
31538;BME280;18147;51.952;6.146;2023-08-07T06:47:00;101326.53;;;14.52;100.00
31538;BME280;18147;51.952;6.146;2023-08-07T06:49:25;101324.84;;;14.51;100.00
31538;BME280;18147;51.952;6.146;2023-08-07T06:51:51;101324.47;;;14.43;100.00
31538;BME280;18147;51.952;6.146;2023-08-07T06:54:16;101328.56;;;14.48;100.00
31538;BME280;18147;51.952;6.146;2023-08-07T06:56:42;101328.66;;;14.47;100.00
31538;BME280;18147;51.952;6.146;2023-08-07T06:59:09;101321.38;;;14.49;100.00
31538;BME280;18147;51.952;6.146;2023-08-07T07:01:35;101322.03;;;14.53;100.00
31538;BME280;18147;51.952;6.146;2023-08-07T07:04:00;101328.00;;;14.69;100.00
31538;BME280;18147;51.952;6.146;2023-08-07T07:06:26;101336.28;;;14.90;100.00
31538;BME280;18147;51.952;6.146;2023-08-07T07:08:51;101338.44;;;14.97;100.00
31538;BME280;18147;51.952;6.146;2023-08-07T07:11:21;101333.06;;;15.21;100.00
31538;BME280;18147;51.952;6.146;2023-08-07T07:13:49;101321.31;;;15.46;100.00
31538;BME280;18147;51.952;6.146;2023-08-07T07:16:17;101310.16;;;15.75;100.00
31538;BME280;18147;51.952;6.146;2023-08-07T07:18:43;101297.72;;;15.96;100.00
31538;BME280;18147;51.952;6.146;2023-08-07T07:21:08;101301.03;;;16.11;100.00
31538;BME280;18147;51.952;6.146;2023-08-07T07:23:34;101299.84;;;16.38;100.00
31538;BME280;18147;51.952;6.146;2023-08-07T07:25:59;101293.47;;;16.39;100.00
31538;BME280;18147;51.952;6.146;2023-08-07T07:28:25;101301.66;;;16.26;100.00
31538;BME280;18147;51.952;6.146;2023-08-07T07:30:51;101303.84;;;16.21;100.00
31538;BME280;18147;51.952;6.146;2023-08-07T07:33:16;101302.63;;;16.25;100.00
31538;BME280;18147;51.952;6.146;2023-08-07T07:35:45;101306.56;;;16.43;100.00
31538;BME280;18147;51.952;6.146;2023-08-07T07:38:10;101311.44;;;16.38;100.00
31538;BME280;18147;51.952;6.146;2023-08-07T07:40:36;101318.03;;;16.45;100.00
31538;BME280;18147;51.952;6.146;2023-08-07T07:43:03;101326.97;;;16.46;100.00
31538;BME280;18147;51.952;6.146;2023-08-07T07:45:28;101320.38;;;16.50;100.00
31538;BME280;18147;51.952;6.146;2023-08-07T07:47:55;101326.03;;;16.47;100.00
31538;BME280;18147;51.952;6.146;2023-08-07T07:50:20;101323.03;;;16.61;100.00
31538;BME280;18147;51.952;6.146;2023-08-07T07:52:46;101326.13;;;16.79;100.00
31538;BME280;18147;51.952;6.146;2023-08-07T07:55:12;101329.91;;;16.65;100.00
31538;BME280;18147;51.952;6.146;2023-08-07T07:57:39;101330.38;;;16.81;100.00
31538;BME280;18147;51.952;6.146;2023-08-07T08:00:06;101333.75;;;17.17;100.00
31538;BME280;18147;51.952;6.146;2023-08-07T08:02:37;101334.03;;;17.03;100.00
31538;BME280;18147;51.952;6.146;2023-08-07T08:05:02;101338.81;;;16.99;100.00
31538;BME280;18147;51.952;6.146;2023-08-07T08:07:28;101341.94;;;17.48;100.00
31538;BME280;18147;51.952;6.146;2023-08-07T08:09:54;101341.38;;;17.86;100.00
31538;BME280;18147;51.952;6.146;2023-08-07T08:12:21;101324.03;;;18.30;100.00
31538;BME280;18147;51.952;6.146;2023-08-07T08:14:47;101325.66;;;18.83;100.00
31538;BME280;18147;51.952;6.146;2023-08-07T08:17:13;101327.63;;;18.81;100.00
31538;BME280;18147;51.952;6.146;2023-08-07T08:19:39;101337.31;;;18.43;100.00
31538;BME280;18147;51.952;6.146;2023-08-07T08:22:05;101334.19;;;18.17;100.00
31538;BME280;18147;51.952;6.146;2023-08-07T08:24:30;101342.41;;;17.53;100.00
31538;BME280;18147;51.952;6.146;2023-08-07T08:26:57;101367.38;;;16.79;100.00
31538;BME280;18147;51.952;6.146;2023-08-07T08:29:23;101380.22;;;16.53;100.00
31538;BME280;18147;51.952;6.146;2023-08-07T08:31:48;101383.47;;;15.66;100.00
31538;BME280;18147;51.952;6.146;2023-08-07T08:34:14;101384.03;;;15.58;100.00
31538;BME280;18147;51.952;6.146;2023-08-07T08:36:40;101394.97;;;15.68;100.00
31538;BME280;18147;51.952;6.146;2023-08-07T08:39:06;101388.56;;;15.82;100.00
31538;BME280;18147;51.952;6.146;2023-08-07T08:41:35;101390.59;;;16.13;100.00
31538;BME280;18147;51.952;6.146;2023-08-07T08:44:01;101383.00;;;16.18;100.00
31538;BME280;18147;51.952;6.146;2023-08-07T08:46:29;101385.84;;;16.50;100.00
31538;BME280;18147;51.952;6.146;2023-08-07T08:48:57;101389.13;;;16.65;100.00
31538;BME280;18147;51.952;6.146;2023-08-07T08:51:24;101392.94;;;16.96;100.00
31538;BME280;18147;51.952;6.146;2023-08-07T08:53:52;101385.63;;;16.87;100.00
31538;BME280;18147;51.952;6.146;2023-08-07T08:56:19;101388.78;;;17.03;100.00
31538;BME280;18147;51.952;6.146;2023-08-07T08:58:48;101379.25;;;17.31;100.00
31538;BME280;18147;51.952;6.146;2023-08-07T09:01:17;101375.78;;;17.41;100.00
31538;BME280;18147;51.952;6.146;2023-08-07T09:03:44;101388.84;;;17.56;100.00
31538;BME280;18147;51.952;6.146;2023-08-07T09:06:12;101384.00;;;17.82;100.00
31538;BME280;18147;51.952;6.146;2023-08-07T09:08:40;101379.22;;;17.43;100.00
31538;BME280;18147;51.952;6.146;2023-08-07T09:11:08;101383.25;;;17.48;100.00
31538;BME280;18147;51.952;6.146;2023-08-07T09:13:36;101390.75;;;17.66;100.00
31538;BME280;18147;51.952;6.146;2023-08-07T09:16:02;101384.28;;;17.57;100.00
31538;BME280;18147;51.952;6.146;2023-08-07T09:18:28;101395.16;;;17.78;100.00
31538;BME280;18147;51.952;6.146;2023-08-07T09:20:54;101398.25;;;18.15;100.00
31538;BME280;18147;51.952;6.146;2023-08-07T09:23:24;101396.09;;;17.88;100.00
31538;BME280;18147;51.952;6.146;2023-08-07T09:25:59;101390.56;;;17.90;100.00
31538;BME280;18147;51.952;6.146;2023-08-07T09:28:26;101405.09;;;18.19;100.00
31538;BME280;18147;51.952;6.146;2023-08-07T09:30:52;101406.41;;;18.25;100.00
31538;BME280;18147;51.952;6.146;2023-08-07T09:33:27;101413.00;;;18.11;100.00
31538;BME280;18147;51.952;6.146;2023-08-07T09:35:57;101408.13;;;18.26;100.00
31538;BME280;18147;51.952;6.146;2023-08-07T09:38:23;101401.03;;;18.55;100.00
31538;BME280;18147;51.952;6.146;2023-08-07T09:40:49;101398.16;;;18.68;100.00
31538;BME280;18147;51.952;6.146;2023-08-07T09:43:22;101402.72;;;18.56;100.00
31538;BME280;18147;51.952;6.146;2023-08-07T09:45:49;101406.97;;;18.70;100.00
31538;BME280;18147;51.952;6.146;2023-08-07T09:48:23;101396.81;;;18.62;100.00
31538;BME280;18147;51.952;6.146;2023-08-07T09:50:49;101397.94;;;18.91;100.00
31538;BME280;18147;51.952;6.146;2023-08-07T09:53:14;101405.38;;;18.98;100.00
31538;BME280;18147;51.952;6.146;2023-08-07T09:55:40;101404.56;;;18.77;100.00
31538;BME280;18147;51.952;6.146;2023-08-07T09:58:08;101410.59;;;18.59;100.00
31538;BME280;18147;51.952;6.146;2023-08-07T10:00:34;101425.50;;;18.54;100.00
31538;BME280;18147;51.952;6.146;2023-08-07T10:03:04;101419.34;;;18.52;100.00
31538;BME280;18147;51.952;6.146;2023-08-07T10:05:30;101417.53;;;18.31;100.00
31538;BME280;18147;51.952;6.146;2023-08-07T10:07:57;101427.38;;;18.32;100.00
31538;BME280;18147;51.952;6.146;2023-08-07T10:10:23;101421.03;;;18.22;100.00
31538;BME280;18147;51.952;6.146;2023-08-07T10:12:50;101418.31;;;18.22;100.00
31538;BME280;18147;51.952;6.146;2023-08-07T10:15:17;101416.91;;;18.70;100.00
31538;BME280;18147;51.952;6.146;2023-08-07T10:17:43;101421.19;;;18.72;100.00
31538;BME280;18147;51.952;6.146;2023-08-07T10:20:09;101425.78;;;18.81;100.00
31538;BME280;18147;51.952;6.146;2023-08-07T10:22:38;101425.91;;;18.80;97.81
31538;BME280;18147;51.952;6.146;2023-08-07T10:25:06;101421.63;;;18.77;97.40
31538;BME280;18147;51.952;6.146;2023-08-07T10:27:34;101427.97;;;19.07;100.00
31538;BME280;18147;51.952;6.146;2023-08-07T10:30:02;101424.03;;;19.21;100.00
31538;BME280;18147;51.952;6.146;2023-08-07T10:32:30;101426.09;;;18.88;94.69
31538;BME280;18147;51.952;6.146;2023-08-07T10:34:56;101424.16;;;19.09;91.64
31538;BME280;18147;51.952;6.146;2023-08-07T10:37:44;101430.09;;;18.94;91.30
31538;BME280;18147;51.952;6.146;2023-08-07T10:40:11;101441.63;;;18.96;95.18
31538;BME280;18147;51.952;6.146;2023-08-07T10:43:23;101439.09;;;18.52;92.12
31538;BME280;18147;51.952;6.146;2023-08-07T10:45:42;101446.22;;;18.74;95.05
31538;BME280;18147;51.952;6.146;2023-08-07T10:48:10;101451.13;;;18.38;94.30
31538;BME280;18147;51.952;6.146;2023-08-07T10:51:06;101446.22;;;19.05;95.00
31538;BME280;18147;51.952;6.146;2023-08-07T10:53:34;101452.75;;;19.12;90.50
31538;BME280;18147;51.952;6.146;2023-08-07T10:56:04;101444.72;;;19.41;90.86
31538;BME280;18147;51.952;6.146;2023-08-07T10:58:33;101444.56;;;19.42;88.50
31538;BME280;18147;51.952;6.146;2023-08-07T11:01:16;101454.75;;;19.10;85.21
31538;BME280;18147;51.952;6.146;2023-08-07T11:03:48;101456.66;;;19.29;89.76
31538;BME280;18147;51.952;6.146;2023-08-07T11:06:13;101451.84;;;19.42;89.99
31538;BME280;18147;51.952;6.146;2023-08-07T11:08:40;101455.63;;;19.89;89.07
31538;BME280;18147;51.952;6.146;2023-08-07T11:11:06;101468.56;;;19.76;86.26
31538;BME280;18147;51.952;6.146;2023-08-07T11:13:35;101456.56;;;20.27;88.19
31538;BME280;18147;51.952;6.146;2023-08-07T11:16:02;101467.97;;;20.40;86.14
31538;BME280;18147;51.952;6.146;2023-08-07T11:18:28;101472.38;;;20.41;87.16
31538;BME280;18147;51.952;6.146;2023-08-07T11:20:55;101479.56;;;20.04;86.12
31538;BME280;18147;51.952;6.146;2023-08-07T11:23:25;101473.16;;;20.05;85.38
31538;BME280;18147;51.952;6.146;2023-08-07T11:25:52;101467.66;;;20.53;86.62
31538;BME280;18147;51.952;6.146;2023-08-07T11:28:19;101471.38;;;20.52;86.16
31538;BME280;18147;51.952;6.146;2023-08-07T11:30:48;101476.38;;;20.47;84.15
31538;BME280;18147;51.952;6.146;2023-08-07T11:33:16;101472.25;;;20.53;83.64
31538;BME280;18147;51.952;6.146;2023-08-07T11:35:42;101472.38;;;20.41;84.70
31538;BME280;18147;51.952;6.146;2023-08-07T11:38:08;101478.22;;;20.56;82.80
31538;BME280;18147;51.952;6.146;2023-08-07T11:40:35;101471.78;;;20.67;83.58
31538;BME280;18147;51.952;6.146;2023-08-07T11:43:00;101472.88;;;19.98;82.48
31538;BME280;18147;51.952;6.146;2023-08-07T11:45:26;101466.16;;;19.63;83.68
31538;BME280;18147;51.952;6.146;2023-08-07T11:47:52;101477.38;;;19.59;83.84
31538;BME280;18147;51.952;6.146;2023-08-07T11:50:21;101465.31;;;19.63;84.13
31538;BME280;18147;51.952;6.146;2023-08-07T11:52:46;101469.25;;;19.49;84.90
31538;BME280;18147;51.952;6.146;2023-08-07T11:55:14;101474.34;;;19.33;86.84
31538;BME280;18147;51.952;6.146;2023-08-07T11:57:40;101473.78;;;18.99;87.88
31538;BME280;18147;51.952;6.146;2023-08-07T12:00:08;101483.56;;;18.90;89.81
31538;BME280;18147;51.952;6.146;2023-08-07T12:02:47;101497.16;;;18.79;92.65
31538;BME280;18147;51.952;6.146;2023-08-07T12:05:13;101486.53;;;18.87;92.32
31538;BME280;18147;51.952;6.146;2023-08-07T12:07:39;101494.47;;;19.09;90.59
31538;BME280;18147;51.952;6.146;2023-08-07T12:10:10;101472.88;;;19.19;88.93
31538;BME280;18147;51.952;6.146;2023-08-07T12:12:39;101471.06;;;19.39;87.73
31538;BME280;18147;51.952;6.146;2023-08-07T12:15:08;101474.00;;;19.26;85.82
31538;BME280;18147;51.952;6.146;2023-08-07T12:17:35;101475.88;;;19.35;87.29
31538;BME280;18147;51.952;6.146;2023-08-07T12:20:03;101493.78;;;19.27;90.87
31538;BME280;18147;51.952;6.146;2023-08-07T12:22:29;101500.13;;;18.55;94.31
31538;BME280;18147;51.952;6.146;2023-08-07T12:24:55;101501.88;;;18.66;97.62
31538;BME280;18147;51.952;6.146;2023-08-07T12:27:20;101504.81;;;18.74;97.03
31538;BME280;18147;51.952;6.146;2023-08-07T12:29:46;101505.38;;;18.56;90.26
31538;BME280;18147;51.952;6.146;2023-08-07T12:32:11;101504.38;;;18.57;91.27
31538;BME280;18147;51.952;6.146;2023-08-07T12:34:37;101498.59;;;18.62;90.64
31538;BME280;18147;51.952;6.146;2023-08-07T12:37:06;101509.16;;;18.23;94.13
31538;BME280;18147;51.952;6.146;2023-08-07T12:39:31;101512.03;;;18.10;99.73
31538;BME280;18147;51.952;6.146;2023-08-07T12:41:57;101501.25;;;17.56;100.00
31538;BME280;18147;51.952;6.146;2023-08-07T12:44:23;101512.97;;;17.23;100.00
31538;BME280;18147;51.952;6.146;2023-08-07T12:46:49;101516.75;;;17.31;100.00
31538;BME280;18147;51.952;6.146;2023-08-07T12:49:15;101510.50;;;17.42;99.43
31538;BME280;18147;51.952;6.146;2023-08-07T12:51:41;101506.16;;;17.73;96.02